Williston, Vermont
Current Conditions -  °F | °C
As of 8:54 PM on Thursday 18 Dec 2014 (Local Time) from KBTV Reporting Station
Light Snow Light Snow  
Wind Chill: 23°   Ceiling: 1800
Heat Index: 31°   Visibility: 9mi
Dew Point: 23°   Wind: 9mph
Humidity: 72%   Direction: 310°NW
Pressure: 29.93"   Gusts: NA
Location:  44.44°N, 73.07°W
Report Text: KBTV 190154Z 31008KT 9SM -SN OVC018 M01/M05 A2993 RMK AO2 SLP139 P0000 T10061050
Loading
Personal Weather Stations






























Interactive Weather Map New forecast layout! Learn more

10-Day Weather Forecast

Advertisements
Track Severe Weather on mobile